Time;durP1;ratioP1;P1;durP2;ratioP2;P2;SDS_P1;SDS_P2;PMS_P1;PMS_P2;Temp;Humidity;BMP_temperature;BMP_pressure;BME280_temperature;BME280_humidity;BME280_pressure;Samples;Min_cycle;Max_cycle;Signal;HPM_P1;HPM_P2
2024/03/27 06:41:35;;;;;;;4.75;2.97;;;;;;;;;;10506621;28;20413;-82
2024/03/27 06:46:36;;;;;;;;;;;;;;;;;;10505222;28;20052;-82
2024/03/27 06:51:37;;;;;;;3.75;2.50;;;;;;;;;;10504048;28;20011;-82
2024/03/27 06:56:38;;;;;;;4.38;2.70;;;;;;;;;;10506476;28;20151;-82
2024/03/27 07:01:39;;;;;;;4.80;3.15;;;;;;;;;;10505683;28;20036;-82
2024/03/27 07:06:40;;;;;;;;;;;;;;;;;;10507462;28;20142;-83
2024/03/27 07:11:41;;;;;;;3.88;2.92;;;;;;;;;;10516205;28;19913;-82
2024/03/27 07:16:43;;;;;;;4.60;2.63;;;;;;;;;;10518187;28;20041;-83
2024/03/27 07:21:44;;;;;;;5.20;2.47;;;;;;;;;;10504317;28;20070;-83
2024/03/27 07:26:45;;;;;;;3.78;3.15;;;;;;;;;;10502639;28;20110;-82
2024/03/27 07:31:46;;;;;;;5.05;2.83;;;;;;;;;;10502271;28;20111;-83
2024/03/27 07:36:51;;;;;;;4.75;2.50;;;;;;;;;;10496616;28;20124;-79
2024/03/27 07:41:52;;;;;;;4.05;2.38;;;;;;;;;;10492769;28;20037;-79
2024/03/27 07:46:53;;;;;;;4.82;3.08;;;;;;;;;;10492919;28;20472;-79
2024/03/27 07:52:00;;;;;;;3.60;2.38;;;;;;;;;;10471106;28;20112;-79
2024/03/27 07:57:07;;;;;;;5.43;3.22;;;;;;;;;;10460709;28;20044;-80
2024/03/27 08:02:08;;;;;;;3.80;2.28;;;;;;;;;;10466867;28;20542;-79
2024/03/27 08:07:11;;;;;;;3.05;2.10;;;;;;;;;;10470375;28;20147;-82
2024/03/27 08:12:15;;;;;;;4.60;2.67;;;;;;;;;;10476137;28;20087;-81
2024/03/27 08:17:19;;;;;;;4.15;2.40;;;;;;;;;;10471300;28;20029;-77
2024/03/27 08:22:41;;;;;;;3.95;2.33;;;;;;;;;;10466355;28;20104;-84
2024/03/27 08:28:14;;;;;;;4.10;2.75;;;;;;;;;;10469713;28;20033;-84
2024/03/27 08:33:30;;;;;;;4.57;3.20;;;;;;;;;;10496153;28;20025;-84
2024/03/27 08:38:39;;;;;;;3.75;2.33;;;;;;;;;;10459481;22;20045;-81
2024/03/27 08:43:40;;;;;;;5.43;2.53;;;;;;;;;;10430136;28;20045;-79
2024/03/27 08:48:42;;;;;;;4.85;2.55;;;;;;;;;;10429042;28;20041;-79
2024/03/27 08:53:47;;;;;;;4.05;2.70;;;;;;;;;;10475652;28;20033;-79
2024/03/27 08:58:49;;;;;;;5.93;2.70;;;;;;;;;;10447252;28;20119;-79
2024/03/27 09:03:50;;;;;;;2.97;2.13;;;;;;;;;;10463263;28;20024;-78
2024/03/27 09:08:51;;;;;;;3.47;2.33;;;;;;;;;;10464475;28;20511;-78
2024/03/27 09:13:52;;;;;;;2.97;2.00;;;;;;;;;;10463056;28;20023;-78
2024/03/27 09:18:54;;;;;;;4.63;2.25;;;;;;;;;;10444167;28;20040;-78
2024/03/27 09:23:55;;;;;;;3.67;2.30;;;;;;;;;;10443439;28;20025;-78
2024/03/27 09:28:56;;;;;;;6.90;5.03;;;;;;;;;;10461517;28;20384;-79
2024/03/27 09:33:57;;;;;;;3.03;2.08;;;;;;;;;;10443530;28;20025;-79
2024/03/27 09:38:58;;;;;;;4.00;2.78;;;;;;;;;;10460511;28;20485;-79
2024/03/27 09:44:11;;;;;;;4.70;2.03;;;;;;;;;;10445348;28;20045;-80
2024/03/27 09:49:14;;;;;;;4.28;2.58;;;;;;;;;;10444830;28;20033;-79
2024/03/27 09:54:15;;;;;;;4.72;2.55;;;;;;;;;;10465238;28;20033;-78
2024/03/27 09:59:17;;;;;;;4.95;2.25;;;;;;;;;;10465669;28;20052;-79
2024/03/27 10:04:20;;;;;;;4.28;2.20;;;;;;;;;;10448561;28;20181;-81
2024/03/27 10:09:22;;;;;;;3.72;2.80;;;;;;;;;;10447710;28;20050;-80
2024/03/27 10:14:23;;;;;;;2.70;2.00;;;;;;;;;;10446649;28;20392;-80
2024/03/27 10:19:25;;;;;;;4.22;3.60;;;;;;;;;;10445557;28;20372;-79
2024/03/27 10:24:31;;;;;;;4.78;3.50;;;;;;;;;;10448478;28;20124;-80
2024/03/27 10:29:40;;;;;;;2.80;2.00;;;;;;;;;;10466473;28;20025;-80
2024/03/27 10:34:42;;;;;;;3.28;2.40;;;;;;;;;;10466803;28;20017;-80
2024/03/27 10:39:46;;;;;;;3.45;2.55;;;;;;;;;;10447756;28;20365;-81
2024/03/27 10:45:18;;;;;;;3.28;2.38;;;;;;;;;;10428766;28;20445;-80
2024/03/27 10:50:20;;;;;;;3.20;2.55;;;;;;;;;;10443851;28;20128;-79
2024/03/27 10:55:21;;;;;;;3.53;2.83;;;;;;;;;;10445528;28;20123;-82
2024/03/27 11:00:22;;;;;;;4.38;3.42;;;;;;;;;;10442851;28;20100;-80
2024/03/27 11:05:28;;;;;;;5.45;4.63;;;;;;;;;;10445570;28;20021;-80
2024/03/27 11:10:29;;;;;;;5.57;3.75;;;;;;;;;;10469115;28;20029;-79
2024/03/27 11:15:32;;;;;;;3.85;2.80;;;;;;;;;;10486831;28;20029;-79
2024/03/27 11:20:33;;;;;;;4.00;3.20;;;;;;;;;;10474140;28;20158;-80
2024/03/27 11:25:39;;;;;;;4.13;3.17;;;;;;;;;;10465432;28;20435;-81
2024/03/27 11:30:40;;;;;;;4.57;3.60;;;;;;;;;;10470501;28;20103;-81
2024/03/27 11:35:41;;;;;;;3.58;2.25;;;;;;;;;;10435611;28;20048;-81
2024/03/27 11:40:43;;;;;;;7.78;5.70;;;;;;;;;;10453229;28;20045;-80
2024/03/27 11:45:45;;;;;;;4.05;2.30;;;;;;;;;;10452816;28;20017;-80
2024/03/27 11:50:46;;;;;;;4.95;2.80;;;;;;;;;;10449730;28;20037;-81
2024/03/27 11:55:53;;;;;;;6.25;3.00;;;;;;;;;;10450024;28;20066;-81
2024/03/27 12:00:57;;;;;;;4.07;3.10;;;;;;;;;;10453062;28;20032;-80
2024/03/27 12:05:59;;;;;;;4.40;3.80;;;;;;;;;;10483831;28;20063;-81
2024/03/27 12:11:00;;;;;;;5.13;4.63;;;;;;;;;;10456133;28;20128;-81
2024/03/27 12:16:03;;;;;;;3.78;3.30;;;;;;;;;;10452490;28;20486;-81
2024/03/27 12:21:33;;;;;;;7.13;4.35;;;;;;;;;;10471376;28;20021;-79
2024/03/27 12:26:38;;;;;;;6.73;3.33;;;;;;;;;;10454468;28;20055;-81
2024/03/27 12:31:40;;;;;;;9.57;6.25;;;;;;;;;;10451617;28;20323;-81
2024/03/27 12:36:41;;;;;;;7.05;6.13;;;;;;;;;;10457331;28;20136;-83
2024/03/27 12:41:46;;;;;;;5.20;4.63;;;;;;;;;;10450911;28;20124;-80
2024/03/27 12:46:49;;;;;;;4.25;2.67;;;;;;;;;;10477009;28;20100;-83
2024/03/27 12:51:51;;;;;;;5.22;3.72;;;;;;;;;;10467912;28;20059;-83
2024/03/27 12:56:54;;;;;;;6.82;4.90;;;;;;;;;;10464849;28;20037;-80
2024/03/27 13:01:55;;;;;;;4.43;3.53;;;;;;;;;;10439539;28;20053;-79
2024/03/27 13:06:56;;;;;;;14.98;12.05;;;;;;;;;;10464315;28;20029;-82
2024/03/27 13:11:57;;;;;;;6.88;6.18;;;;;;;;;;10448756;28;20021;-82
2024/03/27 13:16:59;;;;;;;8.07;7.20;;;;;;;;;;10448359;28;20024;-80
2024/03/27 13:22:00;;;;;;;5.15;4.63;;;;;;;;;;10444929;28;20036;-83
2024/03/27 13:27:08;;;;;;;5.13;4.43;;;;;;;;;;10433936;28;20029;-80
2024/03/27 13:32:10;;;;;;;6.00;5.40;;;;;;;;;;10450494;28;20056;-82
2024/03/27 13:37:14;;;;;;;4.57;3.40;;;;;;;;;;10463589;28;20025;-82
2024/03/27 13:42:19;;;;;;;7.03;5.82;;;;;;;;;;10470536;28;20480;-83
2024/03/27 13:47:22;;;;;;;6.38;5.57;;;;;;;;;;10430680;28;20127;-83
2024/03/27 13:52:30;;;;;;;7.13;5.90;;;;;;;;;;10457172;28;20112;-80
2024/03/27 13:57:34;;;;;;;5.78;5.10;;;;;;;;;;10469438;28;20052;-82
2024/03/27 14:02:35;;;;;;;5.93;4.00;;;;;;;;;;10469164;28;20080;-79
2024/03/27 14:07:36;;;;;;;5.82;4.97;;;;;;;;;;10480668;28;20063;-81
2024/03/27 14:12:55;;;;;;;5.78;4.93;;;;;;;;;;10478893;28;20388;-80
2024/03/27 14:18:17;;;;;;;4.85;4.45;;;;;;;;;;10464866;28;20033;-80
2024/03/27 14:23:40;;;;;;;6.70;5.15;;;;;;;;;;10467347;28;20087;-80
2024/03/27 14:28:56;;;;;;;5.40;4.90;;;;;;;;;;10465662;28;20116;-82
2024/03/27 14:33:57;;;;;;;5.38;4.28;;;;;;;;;;10465964;28;20365;-84
2024/03/27 14:39:04;;;;;;;7.00;3.40;;;;;;;;;;10494747;23;20049;-80
2024/03/27 14:44:22;;;;;;;7.30;3.50;;;;;;;;;;10511738;28;20016;-83
2024/03/27 14:49:46;;;;;;;4.55;3.90;;;;;;;;;;10474044;28;20075;-82
2024/03/27 14:54:53;;;;;;;4.07;3.67;;;;;;;;;;10467701;28;20163;-86
2024/03/27 15:00:05;;;;;;;4.88;3.80;;;;;;;;;;10464163;28;20132;-86
2024/03/27 15:27:58;;;;;;;4.63;3.70;;;;;;;;;;10513390;28;20033;-86
2024/03/27 15:50:18;;;;;;;5.30;3.20;;;;;;;;;;10513018;28;20056;-83
2024/03/27 16:01:04;;;;;;;5.50;3.55;;;;;;;;;;10540158;28;20036;-83
2024/03/27 16:11:55;;;;;;;4.65;2.40;;;;;;;;;;10542927;28;20064;-84
2024/03/27 16:34:12;;;;;;;5.55;3.15;;;;;;;;;;10522716;28;20021;-85
2024/03/27 16:39:36;;;;;;;3.55;2.63;;;;;;;;;;10473996;28;20060;-86
2024/03/27 16:44:39;;;;;;;5.10;2.70;;;;;;;;;;10459009;28;20040;-85
2024/03/27 17:01:16;;;;;;;2.75;2.08;;;;;;;;;;10466900;28;20020;-84
2024/03/27 17:12:14;;;;;;;2.75;1.67;;;;;;;;;;10516558;28;20036;-87
2024/03/27 17:17:31;;;;;;;4.50;2.40;;;;;;;;;;10512433;28;20486;-84
2024/03/27 17:22:32;;;;;;;;;;;;;;;;;;10514089;28;20040;-84
2024/03/27 17:27:33;;;;;;;3.40;1.83;;;;;;;;;;10520794;28;20014;-85
2024/03/27 17:32:34;;;;;;;3.42;2.22;;;;;;;;;;10516685;28;20051;-84
2024/03/27 17:37:35;;;;;;;3.30;2.10;;;;;;;;;;10514028;28;20032;-82
2024/03/27 17:42:36;;;;;;;6.50;3.75;;;;;;;;;;10496246;28;20088;-81
2024/03/27 17:47:37;;;;;;;10.20;6.32;;;;;;;;;;10508556;28;20032;-81
2024/03/27 17:52:38;;;;;;;8.55;6.32;;;;;;;;;;10489805;28;20036;-82
2024/03/27 17:57:39;;;;;;;5.72;3.75;;;;;;;;;;10490929;28;20032;-84
2024/03/27 18:02:40;;;;;;;6.07;3.72;;;;;;;;;;10492338;28;20028;-85
2024/03/27 18:07:41;;;;;;;;;;;;;;;;;;10506274;28;20477;-85
2024/03/27 18:12:42;;;;;;;4.45;2.50;;;;;;;;;;10488033;28;19904;-85
2024/03/27 18:17:43;;;;;;;5.63;3.75;;;;;;;;;;10490320;28;20526;-85
2024/03/27 18:22:44;;;;;;;4.28;3.45;;;;;;;;;;10509815;28;20104;-85
2024/03/27 18:27:45;;;;;;;6.50;3.53;;;;;;;;;;10510332;28;20479;-85
2024/03/27 18:32:46;;;;;;;4.90;2.53;;;;;;;;;;10500350;28;20024;-85
2024/03/27 18:37:47;;;;;;;2.85;1.95;;;;;;;;;;10517012;28;20081;-85
2024/03/27 18:42:49;;;;;;;4.93;2.45;;;;;;;;;;10514475;28;20044;-85
2024/03/27 18:47:50;;;;;;;4.47;2.20;;;;;;;;;;10491401;28;20487;-82
2024/03/27 18:52:51;;;;;;;2.85;1.83;;;;;;;;;;10509855;28;20059;-85
2024/03/27 18:57:55;;;;;;;4.30;2.30;;;;;;;;;;10490032;28;20107;-82
2024/03/27 19:02:56;;;;;;;4.07;2.60;;;;;;;;;;10508526;28;20025;-82
2024/03/27 19:07:57;;;;;;;3.90;2.70;;;;;;;;;;10491955;28;20032;-82
2024/03/27 19:12:58;;;;;;;3.78;2.60;;;;;;;;;;10494309;28;20059;-84
2024/03/27 19:18:00;;;;;;;3.60;2.47;;;;;;;;;;10507168;28;20025;-85
2024/03/27 19:23:01;;;;;;;4.80;3.13;;;;;;;;;;10494544;28;20052;-85
2024/03/27 19:28:04;;;;;;;4.18;2.70;;;;;;;;;;10496241;28;20033;-85
2024/03/27 19:33:07;;;;;;;3.97;3.13;;;;;;;;;;10495944;28;20020;-85
2024/03/27 19:38:09;;;;;;;3.70;2.70;;;;;;;;;;10488462;28;20021;-81
2024/03/27 19:43:10;;;;;;;3.67;2.80;;;;;;;;;;10489183;28;20514;-81
2024/03/27 19:48:11;;;;;;;4.82;3.00;;;;;;;;;;10490526;28;20120;-82
2024/03/27 19:53:12;;;;;;;4.50;3.10;;;;;;;;;;10492225;28;20115;-82
2024/03/27 19:58:13;;;;;;;4.00;3.05;;;;;;;;;;10509574;28;20030;-81
2024/03/27 20:03:14;;;;;;;4.22;3.20;;;;;;;;;;10509533;28;20119;-82
